createdAt,value
2018-02-03T00:02:26.450Z,98548.76
2018-02-03T00:04:53.981Z,98547.89
2018-02-03T00:07:21.568Z,98541.19
2018-02-03T00:09:49.137Z,98541.73
2018-02-03T00:12:16.718Z,98541.84
2018-02-03T00:14:44.266Z,98536.11
2018-02-03T00:17:11.802Z,98533.99
2018-02-03T00:19:39.382Z,98531.96
2018-02-03T00:22:06.927Z,98522.92
2018-02-03T00:24:34.464Z,98522.79
2018-02-03T00:27:02.009Z,98527.23
2018-02-03T00:29:29.553Z,98524.20
2018-02-03T00:31:57.207Z,98527.05
2018-02-03T00:34:24.896Z,98520.96
2018-02-03T00:36:52.539Z,98522.84
2018-02-03T00:39:20.082Z,98508.36
2018-02-03T00:41:47.876Z,98507.91
2018-02-03T00:44:15.464Z,98507.06
2018-02-03T00:46:43.031Z,98500.36
2018-02-03T00:49:10.722Z,98494.42
2018-02-03T00:51:38.317Z,98489.20
2018-02-03T00:54:05.958Z,98505.18
2018-02-03T00:56:33.535Z,98502.78
2018-02-03T00:59:01.402Z,98508.18
2018-02-03T01:01:28.980Z,98506.50
2018-02-03T01:03:56.542Z,98502.89
2018-02-03T01:06:24.098Z,98502.53
2018-02-03T01:08:51.790Z,98482.00
2018-02-03T01:11:19.354Z,98470.75
2018-02-03T01:13:47.185Z,98466.66
2018-02-03T01:16:14.762Z,98473.95
2018-02-03T01:18:42.547Z,98473.01
2018-02-03T01:21:10.189Z,98479.01
2018-02-03T01:23:37.983Z,98480.28
2018-02-03T01:26:05.546Z,98477.50
2018-02-03T01:28:33.318Z,98480.31
2018-02-03T01:31:00.878Z,98468.14
2018-02-03T01:33:28.656Z,98489.89
2018-02-03T01:35:56.210Z,98493.22
2018-02-03T01:38:23.950Z,98484.53
2018-02-03T01:40:51.520Z,98485.48
2018-02-03T01:43:19.327Z,98500.75
2018-02-03T01:45:47.052Z,98496.80
2018-02-03T01:48:14.863Z,98493.43
2018-02-03T01:50:42.422Z,98493.48
2018-02-03T01:53:10.006Z,98492.04
2018-02-03T01:55:37.691Z,98473.98
2018-02-03T01:58:05.539Z,98477.73
2018-02-03T02:00:33.170Z,98481.14
2018-02-03T02:03:00.723Z,98476.08
2018-02-03T02:05:28.286Z,98458.19
2018-02-03T02:07:55.889Z,98447.87
2018-02-03T02:10:23.457Z,98440.41
2018-02-03T02:12:51.022Z,98436.87
2018-02-03T02:15:18.722Z,98444.54
2018-02-03T02:17:46.282Z,98440.20
2018-02-03T02:20:13.890Z,98430.63
2018-02-03T02:22:41.615Z,98427.83
2018-02-03T02:25:09.174Z,98418.19
2018-02-03T02:27:36.951Z,98419.25
2018-02-03T02:30:04.749Z,98412.59
2018-02-03T02:32:32.317Z,98413.53
2018-02-03T02:35:00.080Z,98408.11
2018-02-03T02:37:27.643Z,98408.05
2018-02-03T02:39:55.231Z,98408.56
2018-02-03T02:42:22.807Z,98407.39
2018-02-03T02:44:50.367Z,98395.90
2018-02-03T02:47:17.986Z,98390.61
2018-02-03T02:49:45.597Z,98379.73
2018-02-03T02:52:13.295Z,98380.90
2018-02-03T02:54:40.937Z,98378.86
2018-02-03T02:57:08.501Z,98372.66
2018-02-03T02:59:36.181Z,98367.83
2018-02-03T03:02:03.823Z,98361.98
2018-02-03T03:04:31.621Z,98365.67
2018-02-03T03:06:59.178Z,98359.59
2018-02-03T03:09:26.726Z,98368.58
2018-02-03T03:11:54.274Z,98385.06
2018-02-03T03:14:22.092Z,98382.22
2018-02-03T03:16:49.810Z,98390.55
2018-02-03T03:19:17.503Z,98399.37
2018-02-03T03:21:45.072Z,98402.03
2018-02-03T03:24:12.633Z,98396.30
2018-02-03T03:26:40.381Z,98397.46
2018-02-03T03:29:08.195Z,98409.91
2018-02-03T03:31:36.024Z,98413.83
2018-02-03T03:34:03.612Z,98414.20
2018-02-03T03:36:31.354Z,98415.34
2018-02-03T03:38:59.073Z,98412.14
2018-02-03T03:41:26.646Z,98401.22
2018-02-03T03:43:54.206Z,98399.77
2018-02-03T03:46:21.784Z,98391.96
2018-02-03T03:48:49.357Z,98396.80
2018-02-03T03:51:17.164Z,98400.51
2018-02-03T03:53:44.772Z,98399.99
2018-02-03T03:56:12.326Z,98407.06
2018-02-03T03:58:39.885Z,98389.98
2018-02-03T04:01:07.480Z,98385.31
2018-02-03T04:03:35.086Z,98382.45
2018-02-03T04:06:02.783Z,98377.87
2018-02-03T04:08:30.374Z,98381.05
2018-02-03T04:10:57.942Z,98381.88
2018-02-03T04:13:25.638Z,98390.29
2018-02-03T04:15:53.245Z,98388.19
2018-02-03T04:18:20.827Z,98389.14
2018-02-03T04:20:48.383Z,98387.53
2018-02-03T04:23:15.972Z,98391.34
2018-02-03T04:25:43.714Z,98386.66
2018-02-03T04:28:11.288Z,98386.74
2018-02-03T04:30:38.895Z,98381.30
2018-02-03T04:33:06.666Z,98381.70
2018-02-03T04:35:34.216Z,98384.55
2018-02-03T04:38:01.995Z,98381.28
2018-02-03T04:40:29.600Z,98385.84
2018-02-03T04:42:57.164Z,98383.97
2018-02-03T04:45:24.956Z,98388.55
2018-02-03T04:47:52.513Z,98392.46
2018-02-03T04:50:20.172Z,98387.55
2018-02-03T04:52:47.910Z,98375.81
2018-02-03T04:55:15.466Z,98368.18
2018-02-03T04:57:43.057Z,98380.41
2018-02-03T05:00:10.629Z,98367.51
2018-02-03T05:02:38.200Z,98373.55
2018-02-03T05:05:05.790Z,98377.22
2018-02-03T05:07:33.393Z,98374.52
2018-02-03T05:10:01.136Z,98381.53
2018-02-03T05:12:28.689Z,98377.69
2018-02-03T05:14:56.250Z,98381.90
2018-02-03T05:17:24.089Z,98374.25
2018-02-03T05:19:51.908Z,98364.66
2018-02-03T05:22:19.469Z,98354.15
2018-02-03T05:24:47.248Z,98359.79
2018-02-03T05:27:14.801Z,98355.05
2018-02-03T05:29:42.491Z,98352.03
2018-02-03T05:32:10.045Z,98353.73
2018-02-03T05:34:37.654Z,98354.08
2018-02-03T05:37:05.503Z,98351.88
2018-02-03T05:39:33.352Z,98344.11
2018-02-03T05:42:00.962Z,98332.06
2018-02-03T05:44:28.933Z,98327.06
2018-02-03T05:46:56.587Z,98331.06
2018-02-03T05:49:24.162Z,98316.00
2018-02-03T05:51:51.950Z,98311.42
2018-02-03T05:54:19.518Z,98309.89
2018-02-03T05:56:47.077Z,98311.18
2018-02-03T05:59:14.651Z,98309.73
2018-02-03T06:01:42.208Z,98306.12
2018-02-03T06:04:09.795Z,98306.69
2018-02-03T06:06:37.393Z,98302.28
2018-02-03T06:09:05.014Z,98299.85
2018-02-03T06:11:32.561Z,98283.36
2018-02-03T06:14:00.178Z,98275.36
2018-02-03T06:16:27.921Z,98267.52
2018-02-03T06:18:55.518Z,98270.42
2018-02-03T06:21:23.075Z,98281.94
2018-02-03T06:23:50.642Z,98271.42
2018-02-03T06:26:18.485Z,98276.45
2018-02-03T06:28:46.055Z,98266.08
2018-02-03T06:31:13.832Z,98279.08
2018-02-03T06:33:41.548Z,98276.50
2018-02-03T06:36:09.367Z,98271.04
2018-02-03T06:38:36.945Z,98277.06
2018-02-03T06:41:04.521Z,98267.89
2018-02-03T06:43:32.091Z,98277.72
2018-02-03T06:45:59.650Z,98278.40
2018-02-03T06:48:27.460Z,98275.69
2018-02-03T06:50:55.073Z,98289.84
2018-02-03T06:53:22.654Z,98267.51
2018-02-03T06:55:50.220Z,98255.09
2018-02-03T06:58:18.121Z,98230.35
2018-02-03T07:00:45.946Z,98253.72
2018-02-03T07:03:13.697Z,98253.86
2018-02-03T07:05:41.483Z,98253.14
2018-02-03T07:08:09.352Z,98239.13
2018-02-03T07:10:36.919Z,98237.61
2018-02-03T07:13:04.489Z,98240.22
2018-02-03T07:15:32.209Z,98238.27
2018-02-03T07:17:59.872Z,98245.13
2018-02-03T07:20:27.450Z,98244.31
2018-02-03T07:22:55.030Z,98255.72
2018-02-03T07:25:22.710Z,98253.45
2018-02-03T07:27:50.289Z,98250.73
2018-02-03T07:30:17.906Z,98247.06
2018-02-03T07:32:45.466Z,98261.11
2018-02-03T07:35:13.299Z,98265.41
2018-02-03T07:37:40.861Z,98275.98
2018-02-03T07:40:08.407Z,98293.16
2018-02-03T07:42:36.012Z,98290.41
2018-02-03T07:45:03.618Z,98280.51
2018-02-03T07:47:31.348Z,98300.09
2018-02-03T07:49:58.902Z,98297.23
2018-02-03T07:52:26.518Z,98275.31
2018-02-03T07:54:54.222Z,98277.61
2018-02-03T07:57:21.809Z,98276.88
2018-02-03T07:59:49.373Z,98294.11
2018-02-03T08:02:17.099Z,98287.11
2018-02-03T08:04:44.918Z,98273.64
2018-02-03T08:07:12.478Z,98277.39
2018-02-03T08:09:40.221Z,98280.48
2018-02-03T08:12:07.814Z,98269.44
2018-02-03T08:14:35.376Z,98262.43
2018-02-03T08:17:02.956Z,98279.78
2018-02-03T08:19:30.518Z,98289.89
2018-02-03T08:21:58.225Z,98299.73
2018-02-03T08:24:25.958Z,98285.72
2018-02-03T08:26:53.529Z,98299.47
2018-02-03T08:29:21.294Z,98282.88
2018-02-03T08:31:48.858Z,98279.61
2018-02-03T08:34:16.630Z,98273.21
2018-02-03T08:36:44.448Z,98275.69
2018-02-03T08:39:12.058Z,98281.56
2018-02-03T08:41:39.635Z,98264.34
2018-02-03T08:44:07.404Z,98265.99
2018-02-03T08:46:35.062Z,98261.00
2018-02-03T08:49:02.811Z,98256.16
2018-02-03T08:51:30.525Z,98244.41
2018-02-03T08:53:58.285Z,98248.50
2018-02-03T08:56:25.925Z,98245.81
2018-02-03T08:58:53.490Z,98234.90
2018-02-03T09:01:21.082Z,98246.90
2018-02-03T09:03:48.663Z,98259.62
2018-02-03T09:06:16.233Z,98227.91
2018-02-03T09:08:43.811Z,98202.07
2018-02-03T09:11:11.370Z,98177.73
2018-02-03T09:13:39.221Z,98168.50
2018-02-03T09:16:06.797Z,98172.91
2018-02-03T09:18:34.374Z,98148.91
2018-02-03T09:21:02.172Z,98132.94
2018-02-03T09:23:29.891Z,98122.72
2018-02-03T09:25:57.466Z,98140.17
2018-02-03T09:28:25.030Z,98122.91
2018-02-03T09:30:52.654Z,98127.95
2018-02-03T09:33:20.272Z,98128.88
2018-02-03T09:35:48.005Z,98121.05
2018-02-03T09:38:15.652Z,98122.77
2018-02-03T09:40:43.211Z,98124.98
2018-02-03T09:43:10.782Z,98153.32
2018-02-03T09:45:38.514Z,98186.23
2018-02-03T09:48:06.156Z,98190.73
2018-02-03T09:50:33.732Z,98171.00
2018-02-03T09:53:01.590Z,98155.87
2018-02-03T09:55:29.174Z,98107.62
2018-02-03T09:57:56.725Z,98117.13
2018-02-03T10:00:24.304Z,98157.13
2018-02-03T10:02:52.026Z,98130.25
2018-02-03T10:05:19.734Z,98129.17
2018-02-03T10:07:47.298Z,98180.59
2018-02-03T10:10:15.017Z,98126.34
2018-02-03T10:12:42.618Z,98117.83
2018-02-03T10:15:10.352Z,98105.07
2018-02-03T10:17:37.925Z,98097.41
2018-02-03T10:20:05.489Z,98065.78
2018-02-03T10:22:33.305Z,98079.57
2018-02-03T10:25:01.026Z,98086.64
2018-02-03T10:27:28.577Z,98096.52
2018-02-03T10:29:56.154Z,98082.19
2018-02-03T10:32:23.722Z,98066.77
2018-02-03T10:34:51.299Z,98071.64
2018-02-03T10:37:18.931Z,98056.59
2018-02-03T10:39:46.751Z,98041.59
2018-02-03T10:42:14.386Z,98038.02
2018-02-03T10:44:41.961Z,98026.42
2018-02-03T10:47:09.519Z,98001.80
2018-02-03T10:49:37.089Z,98006.59
2018-02-03T10:52:04.858Z,97997.25
2018-02-03T10:54:32.676Z,97952.37
2018-02-03T10:57:00.483Z,97957.91
2018-02-03T10:59:28.078Z,97941.31
2018-02-03T11:01:55.648Z,97933.27
2018-02-03T11:04:23.331Z,97933.27
2018-02-03T11:06:51.035Z,97945.56
2018-02-03T11:09:18.702Z,97931.03
2018-02-03T11:11:46.295Z,97920.97
2018-02-03T11:14:13.912Z,97926.80
2018-02-03T11:16:41.533Z,97953.23
2018-02-03T11:19:09.240Z,97965.65
2018-02-03T11:21:36.867Z,97965.50
2018-02-03T11:24:04.593Z,97963.59
2018-02-03T11:26:32.165Z,97957.60
2018-02-03T11:28:59.729Z,97928.05
2018-02-03T11:31:27.341Z,97920.83
2018-02-03T11:33:55.060Z,97921.98
2018-02-03T11:36:22.618Z,97904.47
2018-02-03T11:38:50.291Z,97911.35
2018-02-03T11:41:17.897Z,97891.36
2018-02-03T11:43:45.513Z,97900.09
2018-02-03T11:46:13.268Z,97882.87
2018-02-03T11:48:40.973Z,97878.83
2018-02-03T11:51:08.547Z,97882.74
2018-02-03T11:53:36.311Z,97900.80
2018-02-03T11:56:04.127Z,97883.06
2018-02-03T11:58:31.948Z,97867.34
2018-02-03T12:00:59.766Z,97873.20
2018-02-03T12:03:27.486Z,97875.03
2018-02-03T12:05:55.073Z,97860.41
2018-02-03T12:08:22.811Z,97870.33
2018-02-03T12:10:50.637Z,97870.53
2018-02-03T12:13:18.250Z,97871.09
2018-02-03T12:15:45.814Z,97877.73
2018-02-03T12:18:13.380Z,97881.77
2018-02-03T12:20:41.197Z,97866.46
2018-02-03T12:23:08.771Z,97858.59
2018-02-03T12:25:36.459Z,97858.17
2018-02-03T12:28:04.267Z,97851.04
2018-02-03T12:30:32.082Z,97865.62
2018-02-03T12:32:59.737Z,97854.91
2018-02-03T12:35:27.404Z,97885.22
2018-02-03T12:37:54.981Z,97881.37
2018-02-03T12:40:22.597Z,97870.18
2018-02-03T12:42:50.372Z,97877.84
2018-02-03T12:45:18.102Z,97857.80
2018-02-03T12:47:45.701Z,97875.61
2018-02-03T12:50:13.253Z,97844.09
2018-02-03T12:52:40.858Z,97846.70
2018-02-03T12:55:08.714Z,97831.05
2018-02-03T12:57:36.253Z,97818.64
2018-02-03T13:00:03.853Z,97821.48
2018-02-03T13:02:31.406Z,97828.20
2018-02-03T13:04:59.295Z,97811.99
2018-02-03T13:07:26.849Z,97816.74
2018-02-03T13:09:54.403Z,97818.33
2018-02-03T13:12:21.969Z,97798.67
2018-02-03T13:14:49.806Z,97784.67
2018-02-03T13:17:17.526Z,97784.48
2018-02-03T13:19:45.220Z,97800.63
2018-02-03T13:22:12.897Z,97802.34
2018-02-03T13:24:40.682Z,97828.05
2018-02-03T13:27:08.368Z,97805.84
2018-02-03T13:29:36.087Z,97797.16
2018-02-03T13:32:03.649Z,97793.08
2018-02-03T13:34:31.453Z,97770.72
2018-02-03T13:36:59.027Z,97770.11
2018-02-03T13:39:26.593Z,97764.45
2018-02-03T13:41:54.196Z,97784.92
2018-02-03T13:44:21.909Z,97767.73
2018-02-03T13:46:49.644Z,97773.88
2018-02-03T13:49:17.215Z,97749.14
2018-02-03T13:51:44.821Z,97763.30
2018-02-03T13:54:12.505Z,97780.09
2018-02-03T13:56:40.065Z,97789.89
2018-02-03T13:59:07.663Z,97749.01
2018-02-03T14:01:35.238Z,97754.13
2018-02-03T14:04:02.813Z,97769.27
2018-02-03T14:06:30.475Z,97756.91
2018-02-03T14:08:58.094Z,97742.31
2018-02-03T14:11:25.657Z,97749.81
2018-02-03T14:13:53.571Z,97739.38
2018-02-03T14:16:21.152Z,97723.47
2018-02-03T14:18:48.936Z,97721.50
2018-02-03T14:21:16.754Z,97706.47
2018-02-03T14:26:46.301Z,97685.20
2018-02-03T14:29:14.132Z,97687.11
2018-02-03T14:31:41.948Z,97705.13
2018-02-03T14:34:09.521Z,97706.28
2018-02-03T14:36:37.085Z,97750.01
2018-02-03T14:39:04.735Z,97765.92
2018-02-03T14:41:32.309Z,97752.51
2018-02-03T14:44:00.137Z,97736.39
2018-02-03T14:46:27.859Z,97744.43
2018-02-03T14:48:55.998Z,97723.83
2018-02-03T14:51:24.697Z,97704.05
2018-02-03T14:53:53.788Z,97719.46
2018-02-03T14:56:21.725Z,97746.27
2018-02-03T14:58:49.548Z,97755.63
2018-02-03T15:01:17.367Z,97758.36
2018-02-03T15:03:45.119Z,97733.83
2018-02-03T15:06:12.980Z,97743.59
2018-02-03T15:08:40.622Z,97768.95
2018-02-03T15:11:08.450Z,97782.59
2018-02-03T15:13:36.260Z,97754.98
2018-02-03T15:16:05.492Z,97748.08
2018-02-03T15:18:33.572Z,97751.89
2018-02-03T15:21:02.334Z,97762.95
2018-02-03T15:23:30.238Z,97750.02
2018-02-03T15:26:00.071Z,97747.78
2018-02-03T15:28:27.888Z,97752.37
2018-02-03T15:31:02.061Z,97747.12
2018-02-03T15:33:32.062Z,97754.16
2018-02-03T15:35:59.852Z,97742.85
2018-02-03T15:38:27.406Z,97749.98
2018-02-03T15:40:54.989Z,97754.10
2018-02-03T15:43:22.548Z,97746.05
2018-02-03T15:45:50.173Z,97758.05
2018-02-03T15:48:17.782Z,97771.83
2018-02-03T15:50:45.590Z,97751.59
2018-02-03T15:53:13.160Z,97775.55
2018-02-03T15:55:40.717Z,97774.42
2018-02-03T15:58:08.266Z,97779.74
2018-02-03T16:00:35.851Z,97784.52
2018-02-03T16:03:03.682Z,97784.98
2018-02-03T16:05:31.500Z,97765.92
2018-02-03T16:07:59.316Z,97761.30
2018-02-03T16:10:27.136Z,97755.55
2018-02-03T16:12:54.697Z,97758.48
2018-02-03T16:15:22.258Z,97773.28
2018-02-03T16:17:50.088Z,97781.77
2018-02-03T16:20:17.907Z,97785.39
2018-02-03T16:22:45.470Z,97784.30
2018-02-03T16:25:13.209Z,97800.52
2018-02-03T16:27:40.949Z,97788.44
2018-02-03T16:30:08.679Z,97785.72
2018-02-03T16:32:36.292Z,97785.50
2018-02-03T16:35:03.854Z,97790.81
2018-02-03T16:37:31.417Z,97794.66
2018-02-03T16:39:58.997Z,97779.53
2018-02-03T16:42:26.677Z,97791.36
2018-02-03T16:44:54.257Z,97804.47
2018-02-03T16:47:22.005Z,97815.30
2018-02-03T16:49:49.924Z,97811.40
2018-02-03T16:52:17.490Z,97810.28
2018-02-03T16:54:45.260Z,97807.02
2018-02-03T16:57:12.853Z,97808.42
2018-02-03T16:59:40.595Z,97818.59
2018-02-03T17:02:08.200Z,97825.11
2018-02-03T17:04:35.809Z,97819.98
2018-02-03T17:07:03.430Z,97834.06
2018-02-03T17:09:30.991Z,97836.67
2018-02-03T17:11:58.554Z,97830.02
2018-02-03T17:14:26.194Z,97825.14
2018-02-03T17:16:54.002Z,97826.09
2018-02-03T17:19:21.586Z,97830.27
2018-02-03T17:21:49.150Z,97827.16
2018-02-03T17:24:16.772Z,97821.81
2018-02-03T17:26:44.493Z,97823.31
2018-02-03T17:29:12.317Z,97826.83
2018-02-03T17:31:39.919Z,97825.41
2018-02-03T17:34:07.477Z,97825.08
2018-02-03T17:36:40.521Z,97826.77
2018-02-03T17:39:13.625Z,97830.58
2018-02-03T17:41:41.440Z,97821.64
2018-02-03T17:44:09.005Z,97823.80
2018-02-03T17:46:42.051Z,97828.84
2018-02-03T17:49:09.654Z,97827.02
2018-02-03T17:51:37.322Z,97810.98
2018-02-03T17:54:05.051Z,97817.20
2018-02-03T17:56:38.209Z,97805.59
2018-02-03T17:59:05.774Z,97791.91
2018-02-03T18:01:33.383Z,97797.98
2018-02-03T18:04:00.957Z,97798.14
2018-02-03T18:06:34.061Z,97803.45
2018-02-03T18:09:01.674Z,97812.42
2018-02-03T18:11:29.235Z,97802.59
2018-02-03T18:13:57.025Z,97798.34
2018-02-03T18:16:24.645Z,97826.63
2018-02-03T18:18:52.366Z,97817.06
2018-02-03T18:21:19.938Z,97817.11
2018-02-03T18:23:47.595Z,97780.70
2018-02-03T18:26:15.210Z,97806.45
2018-02-03T18:28:42.786Z,97807.95
2018-02-03T18:31:10.621Z,97807.52
2018-02-03T18:33:38.292Z,97810.50
2018-02-03T18:36:05.867Z,97794.51
2018-02-03T18:38:33.515Z,97821.08
2018-02-03T18:41:01.097Z,97798.55
2018-02-03T18:43:28.663Z,97814.16
2018-02-03T18:45:56.447Z,97792.20
2018-02-03T18:48:24.054Z,97774.86
2018-02-03T18:50:51.603Z,97790.29
2018-02-03T18:53:19.177Z,97784.77
2018-02-03T18:55:46.749Z,97780.33
2018-02-03T18:58:14.307Z,97756.88
2018-02-03T19:00:42.071Z,97751.55
2018-02-03T19:03:09.634Z,97747.74
2018-02-03T19:05:37.477Z,97752.05
2018-02-03T19:08:05.192Z,97749.89
2018-02-03T19:10:32.761Z,97751.61
2018-02-03T19:13:00.322Z,97746.19
2018-02-03T19:15:27.909Z,97751.48
2018-02-03T19:17:55.487Z,97755.66
2018-02-03T19:20:23.176Z,97756.06
2018-02-03T19:22:50.778Z,97765.13
2018-02-03T19:25:18.509Z,97763.91
2018-02-03T19:27:46.138Z,97754.38
2018-02-03T19:30:13.698Z,97766.83
2018-02-03T19:32:41.507Z,97774.08
2018-02-03T19:35:09.895Z,97789.11
2018-02-03T19:37:37.554Z,97782.98
2018-02-03T19:40:05.166Z,97783.47
2018-02-03T19:42:32.734Z,97788.48
2018-02-03T19:45:00.270Z,97800.10
2018-02-03T19:47:27.837Z,97782.77
2018-02-03T19:49:55.633Z,97789.05
2018-02-03T19:52:23.342Z,97773.22
2018-02-03T19:54:50.937Z,97790.37
2018-02-03T19:57:18.666Z,97804.34
2018-02-03T19:59:46.248Z,97797.87
2018-02-03T20:02:13.981Z,97806.55
2018-02-03T20:04:41.742Z,97798.85
2018-02-03T20:07:09.370Z,97817.60
2018-02-03T20:09:36.963Z,97815.95
2018-02-03T20:12:04.587Z,97819.28
2018-02-03T20:14:32.209Z,97804.08
2018-02-03T20:16:59.819Z,97802.84
2018-02-03T20:19:27.382Z,97800.87
2018-02-03T20:21:54.945Z,97810.98
2018-02-03T20:24:22.509Z,97779.06
2018-02-03T20:26:50.081Z,97792.39
2018-02-03T20:29:17.637Z,97810.91
2018-02-03T20:31:45.404Z,97793.14
2018-02-03T20:34:12.966Z,97779.92
2018-02-03T20:36:40.526Z,97773.61
2018-02-03T20:39:08.291Z,97805.61
2018-02-03T20:41:35.858Z,97805.19
2018-02-03T20:44:03.470Z,97806.13
2018-02-03T20:46:31.011Z,97802.95
2018-02-03T20:48:58.753Z,97816.91
2018-02-03T20:51:26.484Z,97800.00
2018-02-03T20:53:54.078Z,97807.38
2018-02-03T20:56:21.690Z,97809.09
2018-02-03T20:58:49.241Z,97803.67
2018-02-03T21:01:17.054Z,97818.02
2018-02-03T21:03:44.613Z,97822.23
2018-02-03T21:06:12.258Z,97811.11
2018-02-03T21:08:39.809Z,97819.88
2018-02-03T21:11:07.388Z,97829.80
2018-02-03T21:13:34.974Z,97825.25
2018-02-03T21:16:02.534Z,97849.81
2018-02-03T21:18:30.106Z,97843.50
2018-02-03T21:20:57.896Z,97826.87
2018-02-03T21:23:25.569Z,97818.02
2018-02-03T21:25:53.153Z,97823.13
2018-02-03T21:28:20.722Z,97820.48
2018-02-03T21:30:48.291Z,97826.30
2018-02-03T21:33:16.086Z,97814.33
2018-02-03T21:35:43.699Z,97813.92
2018-02-03T21:38:11.307Z,97819.59
2018-02-03T21:40:39.140Z,97803.44
2018-02-03T21:43:06.706Z,97800.06
2018-02-03T21:45:34.478Z,97799.06
2018-02-03T21:48:02.088Z,97813.73
2018-02-03T21:50:29.657Z,97809.33
2018-02-03T21:52:57.270Z,97784.80
2018-02-03T21:55:24.831Z,97797.14
2018-02-03T21:57:52.470Z,97797.52
2018-02-03T22:00:20.286Z,97794.73
2018-02-03T22:02:47.858Z,97792.97
2018-02-03T22:05:15.514Z,97791.17
2018-02-03T22:07:43.339Z,97794.84
2018-02-03T22:10:10.973Z,97787.27
2018-02-03T22:12:38.573Z,97781.63
2018-02-03T22:15:06.193Z,97775.65
2018-02-03T22:17:33.762Z,97768.25
2018-02-03T22:20:01.322Z,97776.90
2018-02-03T22:22:28.898Z,97776.73
2018-02-03T22:24:56.457Z,97764.44
2018-02-03T22:27:24.181Z,97774.63
2018-02-03T22:29:51.741Z,97787.02
2018-02-03T22:32:19.398Z,97785.73
2018-02-03T22:34:46.976Z,97795.33
2018-02-03T22:37:14.550Z,97786.42
2018-02-03T22:39:42.119Z,97800.47
2018-02-03T22:42:09.747Z,97799.50
2018-02-03T22:44:37.319Z,97793.91
2018-02-03T22:47:05.125Z,97805.28
2018-02-03T22:49:32.738Z,97818.16
2018-02-03T22:52:00.462Z,97814.59
2018-02-03T22:54:28.100Z,97807.45
2018-02-03T22:56:55.897Z,97800.82
2018-02-03T22:59:23.458Z,97800.41
2018-02-03T23:01:51.338Z,97790.65
2018-02-03T23:04:19.128Z,97790.11
2018-02-03T23:06:46.690Z,97799.84
2018-02-03T23:09:14.333Z,97806.67
2018-02-03T23:11:41.991Z,97796.87
2018-02-03T23:14:09.576Z,97780.55
2018-02-03T23:16:37.311Z,97792.48
2018-02-03T23:19:04.945Z,97795.41
2018-02-03T23:21:32.678Z,97795.65
2018-02-03T23:24:00.265Z,97779.41
2018-02-03T23:26:27.838Z,97770.48
2018-02-03T23:28:55.632Z,97765.86
2018-02-03T23:31:23.450Z,97760.31
2018-02-03T23:33:50.993Z,97754.95
2018-02-03T23:36:18.789Z,97751.23
2018-02-03T23:38:46.373Z,97755.37
2018-02-03T23:41:13.928Z,97760.66
2018-02-03T23:43:41.549Z,97766.66
2018-02-03T23:46:09.359Z,97767.67
2018-02-03T23:48:37.051Z,97766.52
2018-02-03T23:51:04.638Z,97768.47
2018-02-03T23:53:32.204Z,97777.24
2018-02-03T23:55:59.782Z,97776.09
2018-02-03T23:58:27.573Z,97790.95
